QTR148 LEMD-LEBL
Flight info
| Callsign | QTR148 |
|---|---|
| Flight time | 0h 46m |
| Altitude | 30000 |
| Route | PINAR N870 PONEN T600 CASPE |
| Aircraft | B77W/H-SDE1E2E3FGHIJ2J3J4J5M1RWXY/LB1D1 |
Departure
| Time | 2026-05-07 18:24 |
|---|---|
| Airport | Adolfo Suárez Madrid–Barajas Airport (LEMD) |
Arrival
| Time | 2026-05-07 19:10 |
|---|---|
| Airport | Josep Tarradellas Barcelona-El Prat Airport (LEBL) |
| Time | Latitude | Longitude | Altitude | Speed | Heading |
|---|---|---|---|---|---|
| 2026-05-07 18:08 | 40.48991 | -3.56876 | 1981 ft | 0 kts | 83° |
| 2026-05-07 18:13 | 40.48989 | -3.56904 | 1983 ft | 4 kts | 87° |
| 2026-05-07 18:13 | 40.48988 | -3.56939 | 1983 ft | 4 kts | 89° |
| 2026-05-07 18:14 | 40.48988 | -3.56971 | 1983 ft | 4 kts | 101° |
| 2026-05-07 18:14 | 40.49000 | -3.56994 | 1984 ft | 4 kts | 164° |
| 2026-05-07 18:14 | 40.49026 | -3.56998 | 1984 ft | 4 kts | 180° |
| 2026-05-07 18:14 | 40.49036 | -3.56998 | 1984 ft | 1 kts | 180° |
| 2026-05-07 18:18 | 40.49035 | -3.56998 | 1984 ft | 1 kts | 180° |
| 2026-05-07 18:18 | 40.49020 | -3.56998 | 1984 ft | 3 kts | 180° |
| 2026-05-07 18:18 | 40.48999 | -3.56998 | 1984 ft | 3 kts | 180° |
| 2026-05-07 18:19 | 40.48975 | -3.56998 | 1984 ft | 4 kts | 180° |
| 2026-05-07 18:19 | 40.48945 | -3.56998 | 1984 ft | 6 kts | 180° |
| 2026-05-07 18:19 | 40.48877 | -3.56979 | 1984 ft | 14 kts | 142° |
| 2026-05-07 18:19 | 40.48861 | -3.56817 | 1981 ft | 23 kts | 90° |
| 2026-05-07 18:20 | 40.48862 | -3.56584 | 1978 ft | 27 kts | 89° |
| 2026-05-07 18:20 | 40.48863 | -3.56376 | 1970 ft | 19 kts | 90° |
| 2026-05-07 18:20 | 40.48900 | -3.56255 | 1967 ft | 15 kts | 20° |
| 2026-05-07 18:20 | 40.49007 | -3.56245 | 1967 ft | 15 kts | 0° |
| 2026-05-07 18:21 | 40.49114 | -3.56245 | 1966 ft | 15 kts | 359° |
| 2026-05-07 18:21 | 40.49230 | -3.56246 | 1966 ft | 18 kts | 359° |
| 2026-05-07 18:21 | 40.49370 | -3.56247 | 1966 ft | 21 kts | 360° |
| 2026-05-07 18:21 | 40.49526 | -3.56248 | 1966 ft | 23 kts | 359° |
| 2026-05-07 18:22 | 40.49687 | -3.56249 | 1966 ft | 23 kts | 360° |
| 2026-05-07 18:22 | 40.49780 | -3.56250 | 1966 ft | 17 kts | 360° |
| 2026-05-07 18:22 | 40.49908 | -3.56244 | 1966 ft | 12 kts | 18° |
| 2026-05-07 18:22 | 40.49939 | -3.56158 | 1964 ft | 11 kts | 83° |
| 2026-05-07 18:23 | 40.49947 | -3.56047 | 1963 ft | 12 kts | 79° |
| 2026-05-07 18:23 | 40.50009 | -3.55939 | 1964 ft | 20 kts | 28° |
| 2026-05-07 18:23 | 40.50198 | -3.55923 | 1966 ft | 41 kts | 359° |
| 2026-05-07 18:23 | 40.50740 | -3.55926 | 1969 ft | 117 kts | 360° |
| 2026-05-07 18:24 | 40.51789 | -3.55936 | 1992 ft | 177 kts | 360° |
| 2026-05-07 18:24 | 40.53017 | -3.55939 | 2677 ft | 179 kts | 1° |
| 2026-05-07 18:24 | 40.54286 | -3.55787 | 3391 ft | 184 kts | 12° |
| 2026-05-07 18:24 | 40.55523 | -3.55326 | 4095 ft | 191 kts | 17° |
| 2026-05-07 18:25 | 40.56884 | -3.54790 | 4429 ft | 214 kts | 17° |
| 2026-05-07 18:25 | 40.58253 | -3.53842 | 4661 ft | 240 kts | 47° |
| 2026-05-07 18:25 | 40.59184 | -3.51906 | 4998 ft | 260 kts | 63° |
| 2026-05-07 18:25 | 40.60015 | -3.49737 | 5766 ft | 269 kts | 63° |
| 2026-05-07 18:26 | 40.60882 | -3.47558 | 6626 ft | 274 kts | 63° |
| 2026-05-07 18:26 | 40.61789 | -3.45324 | 7504 ft | 279 kts | 62° |
| 2026-05-07 18:26 | 40.62724 | -3.43064 | 8391 ft | 282 kts | 62° |
| 2026-05-07 18:26 | 40.63685 | -3.40788 | 9138 ft | 289 kts | 61° |
| 2026-05-07 18:27 | 40.64661 | -3.38460 | 9992 ft | 291 kts | 61° |
| 2026-05-07 18:27 | 40.65664 | -3.36092 | 10670 ft | 305 kts | 60° |
| 2026-05-07 18:27 | 40.66781 | -3.33556 | 10915 ft | 335 kts | 60° |
| 2026-05-07 18:27 | 40.68001 | -3.30808 | 11224 ft | 358 kts | 60° |
| 2026-05-07 18:28 | 40.69277 | -3.27927 | 12038 ft | 368 kts | 60° |
| 2026-05-07 18:28 | 40.70570 | -3.24969 | 13047 ft | 375 kts | 60° |
| 2026-05-07 18:28 | 40.71867 | -3.21963 | 14078 ft | 380 kts | 60° |
| 2026-05-07 18:28 | 40.73173 | -3.18908 | 15086 ft | 386 kts | 61° |
| 2026-05-07 18:29 | 40.74481 | -3.15838 | 16021 ft | 392 kts | 61° |
| 2026-05-07 18:29 | 40.75822 | -3.12678 | 16953 ft | 398 kts | 61° |
| 2026-05-07 18:29 | 40.77186 | -3.09458 | 17854 ft | 404 kts | 61° |
| 2026-05-07 18:29 | 40.78572 | -3.06185 | 18720 ft | 411 kts | 61° |
| 2026-05-07 18:30 | 40.79975 | -3.02864 | 19585 ft | 417 kts | 61° |
| 2026-05-07 18:30 | 40.81395 | -2.99502 | 20434 ft | 422 kts | 62° |
| 2026-05-07 18:30 | 40.82833 | -2.96094 | 21262 ft | 427 kts | 62° |
| 2026-05-07 18:30 | 40.84288 | -2.92639 | 22037 ft | 433 kts | 62° |
| 2026-05-07 18:31 | 40.85765 | -2.89130 | 22796 ft | 439 kts | 62° |
| 2026-05-07 18:31 | 40.87253 | -2.85591 | 23529 ft | 444 kts | 62° |
| 2026-05-07 18:31 | 40.88762 | -2.81997 | 24251 ft | 449 kts | 62° |
| 2026-05-07 18:31 | 40.90284 | -2.78368 | 24929 ft | 454 kts | 62° |
| 2026-05-07 18:32 | 40.91798 | -2.74752 | 25591 ft | 458 kts | 62° |
| 2026-05-07 18:32 | 40.93342 | -2.71063 | 26389 ft | 457 kts | 62° |
| 2026-05-07 18:32 | 40.94879 | -2.67388 | 27310 ft | 454 kts | 61° |
| 2026-05-07 18:32 | 40.96401 | -2.63739 | 28193 ft | 452 kts | 62° |
| 2026-05-07 18:33 | 40.97754 | -2.59994 | 29003 ft | 450 kts | 68° |
| 2026-05-07 18:33 | 40.98815 | -2.56099 | 29706 ft | 451 kts | 74° |
| 2026-05-07 18:33 | 40.99607 | -2.52049 | 29973 ft | 455 kts | 77° |
| 2026-05-07 18:34 | 41.01078 | -2.43982 | 29944 ft | 450 kts | 76° |
| 2026-05-07 18:34 | 41.02608 | -2.35968 | 29946 ft | 448 kts | 76° |
| 2026-05-07 18:35 | 41.04127 | -2.27947 | 29961 ft | 449 kts | 76° |
| 2026-05-07 18:35 | 41.05635 | -2.19914 | 29965 ft | 449 kts | 76° |
| 2026-05-07 18:36 | 41.07133 | -2.11915 | 29962 ft | 450 kts | 77° |
| 2026-05-07 18:36 | 41.08637 | -2.03864 | 29963 ft | 450 kts | 77° |
| 2026-05-07 18:37 | 41.10140 | -1.95818 | 29972 ft | 449 kts | 77° |
| 2026-05-07 18:37 | 41.11629 | -1.87825 | 29970 ft | 448 kts | 77° |
| 2026-05-07 18:38 | 41.13118 | -1.79793 | 29974 ft | 447 kts | 77° |
| 2026-05-07 18:38 | 41.14597 | -1.71774 | 29977 ft | 447 kts | 77° |
| 2026-05-07 18:39 | 41.16069 | -1.63760 | 29983 ft | 447 kts | 77° |
| 2026-05-07 18:39 | 41.17526 | -1.55795 | 29981 ft | 446 kts | 77° |
| 2026-05-07 18:40 | 41.18989 | -1.47769 | 29981 ft | 446 kts | 77° |
| 2026-05-07 18:40 | 41.20445 | -1.39740 | 29980 ft | 446 kts | 77° |
| 2026-05-07 18:41 | 41.21876 | -1.31768 | 29984 ft | 446 kts | 78° |
| 2026-05-07 18:41 | 41.23313 | -1.23740 | 29981 ft | 447 kts | 78° |
| 2026-05-07 18:42 | 41.24746 | -1.15689 | 29979 ft | 447 kts | 78° |
| 2026-05-07 18:42 | 41.26171 | -1.07645 | 29987 ft | 447 kts | 78° |
| 2026-05-07 18:43 | 41.27584 | -0.99655 | 29975 ft | 447 kts | 78° |
| 2026-05-07 18:43 | 41.29002 | -0.91606 | 29974 ft | 447 kts | 78° |
| 2026-05-07 18:44 | 41.30413 | -0.83547 | 29970 ft | 447 kts | 78° |
| 2026-05-07 18:44 | 41.31821 | -0.75495 | 29972 ft | 446 kts | 78° |
| 2026-05-07 18:45 | 41.33219 | -0.67438 | 29972 ft | 447 kts | 78° |
| 2026-05-07 18:45 | 41.34575 | -0.59420 | 29971 ft | 447 kts | 81° |
| 2026-05-07 18:46 | 41.34942 | -0.51215 | 29973 ft | 444 kts | 94° |
| 2026-05-07 18:46 | 41.34158 | -0.43094 | 29979 ft | 442 kts | 101° |
| 2026-05-07 18:47 | 41.33195 | -0.35039 | 29961 ft | 433 kts | 101° |
| 2026-05-07 18:47 | 41.32736 | -0.31131 | 29945 ft | 421 kts | 101° |
| 2026-05-07 18:47 | 41.32292 | -0.27305 | 29582 ft | 417 kts | 101° |
| 2026-05-07 18:47 | 41.31859 | -0.23553 | 29183 ft | 414 kts | 101° |
| 2026-05-07 18:48 | 41.31424 | -0.19781 | 28764 ft | 410 kts | 100° |
| 2026-05-07 18:48 | 41.30997 | -0.16046 | 28360 ft | 406 kts | 101° |
| 2026-05-07 18:48 | 41.30570 | -0.12337 | 27953 ft | 404 kts | 100° |
| 2026-05-07 18:48 | 41.30145 | -0.08666 | 27537 ft | 400 kts | 101° |
| 2026-05-07 18:49 | 41.29722 | -0.05015 | 27126 ft | 397 kts | 101° |
| 2026-05-07 18:49 | 41.29298 | -0.01399 | 26719 ft | 394 kts | 101° |
| 2026-05-07 18:49 | 41.28884 | 0.02147 | 26325 ft | 391 kts | 101° |
| 2026-05-07 18:49 | 41.28467 | 0.05717 | 25927 ft | 388 kts | 101° |
| 2026-05-07 18:50 | 41.28055 | 0.09244 | 25539 ft | 385 kts | 101° |
| 2026-05-07 18:50 | 41.27643 | 0.12757 | 25147 ft | 384 kts | 101° |
| 2026-05-07 18:50 | 41.27229 | 0.16271 | 24755 ft | 384 kts | 101° |
| 2026-05-07 18:50 | 41.26814 | 0.19783 | 24363 ft | 384 kts | 101° |
| 2026-05-07 18:51 | 41.26387 | 0.23299 | 23966 ft | 385 kts | 101° |
| 2026-05-07 18:51 | 41.25954 | 0.26766 | 23572 ft | 385 kts | 101° |
| 2026-05-07 18:51 | 41.25511 | 0.30276 | 23168 ft | 385 kts | 101° |
| 2026-05-07 18:51 | 41.25070 | 0.33784 | 22776 ft | 385 kts | 101° |
| 2026-05-07 18:52 | 41.24628 | 0.37298 | 22366 ft | 385 kts | 101° |
| 2026-05-07 18:52 | 41.24185 | 0.40822 | 21956 ft | 386 kts | 101° |
| 2026-05-07 18:52 | 41.23741 | 0.44345 | 21544 ft | 386 kts | 101° |
| 2026-05-07 18:52 | 41.23298 | 0.47866 | 21132 ft | 386 kts | 101° |
| 2026-05-07 18:53 | 41.22853 | 0.51382 | 20721 ft | 386 kts | 101° |
| 2026-05-07 18:53 | 41.22399 | 0.54897 | 20299 ft | 383 kts | 103° |
| 2026-05-07 18:53 | 41.21607 | 0.58211 | 19887 ft | 381 kts | 116° |
| 2026-05-07 18:53 | 41.20264 | 0.61224 | 19461 ft | 379 kts | 128° |
| 2026-05-07 18:54 | 41.18515 | 0.63816 | 19022 ft | 376 kts | 136° |
| 2026-05-07 18:54 | 41.16649 | 0.66249 | 18592 ft | 377 kts | 136° |
| 2026-05-07 18:54 | 41.14777 | 0.68692 | 18153 ft | 378 kts | 136° |
| 2026-05-07 18:54 | 41.12908 | 0.71149 | 17703 ft | 379 kts | 136° |
| 2026-05-07 18:55 | 41.11039 | 0.73622 | 17251 ft | 379 kts | 136° |
| 2026-05-07 18:55 | 41.09178 | 0.76094 | 16858 ft | 378 kts | 135° |
| 2026-05-07 18:55 | 41.07328 | 0.78556 | 16569 ft | 375 kts | 135° |
| 2026-05-07 18:55 | 41.05512 | 0.80974 | 16327 ft | 366 kts | 135° |
| 2026-05-07 18:56 | 41.03699 | 0.83388 | 15595 ft | 371 kts | 135° |
| 2026-05-07 18:56 | 41.01893 | 0.85786 | 15406 ft | 360 kts | 135° |
| 2026-05-07 18:56 | 41.00193 | 0.88203 | 14716 ft | 359 kts | 126° |
| 2026-05-07 18:56 | 40.99184 | 0.91151 | 14236 ft | 357 kts | 102° |
| 2026-05-07 18:57 | 40.99012 | 0.94397 | 13848 ft | 353 kts | 84° |
| 2026-05-07 18:57 | 40.99522 | 0.97536 | 13468 ft | 345 kts | 75° |
| 2026-05-07 18:57 | 41.00178 | 1.00579 | 13091 ft | 342 kts | 74° |
| 2026-05-07 18:57 | 41.00840 | 1.03584 | 12719 ft | 338 kts | 74° |
| 2026-05-07 18:58 | 41.01491 | 1.06561 | 12356 ft | 335 kts | 74° |
| 2026-05-07 18:58 | 41.02131 | 1.09516 | 11983 ft | 332 kts | 74° |
| 2026-05-07 18:58 | 41.02758 | 1.12444 | 11637 ft | 328 kts | 74° |
| 2026-05-07 18:58 | 41.03373 | 1.15342 | 11281 ft | 325 kts | 74° |
| 2026-05-07 18:59 | 41.03971 | 1.18180 | 10934 ft | 322 kts | 74° |
| 2026-05-07 18:59 | 41.04569 | 1.21031 | 10589 ft | 319 kts | 74° |
| 2026-05-07 18:59 | 41.05160 | 1.23855 | 10261 ft | 316 kts | 75° |
| 2026-05-07 18:59 | 41.05736 | 1.26616 | 10130 ft | 306 kts | 75° |
| 2026-05-07 19:00 | 41.06294 | 1.29300 | 9988 ft | 297 kts | 75° |
| 2026-05-07 19:00 | 41.06836 | 1.31911 | 9719 ft | 293 kts | 75° |
| 2026-05-07 19:00 | 41.07374 | 1.34500 | 9423 ft | 290 kts | 75° |
| 2026-05-07 19:00 | 41.07905 | 1.37068 | 9126 ft | 287 kts | 75° |
| 2026-05-07 19:01 | 41.08426 | 1.39582 | 8824 ft | 285 kts | 74° |
| 2026-05-07 19:01 | 41.08950 | 1.42109 | 8522 ft | 283 kts | 75° |
| 2026-05-07 19:01 | 41.09468 | 1.44614 | 8222 ft | 281 kts | 75° |
| 2026-05-07 19:01 | 41.09982 | 1.47107 | 7923 ft | 279 kts | 75° |
| 2026-05-07 19:02 | 41.10492 | 1.49578 | 7625 ft | 277 kts | 75° |
| 2026-05-07 19:02 | 41.10997 | 1.52031 | 7329 ft | 275 kts | 75° |
| 2026-05-07 19:02 | 41.11497 | 1.54466 | 7037 ft | 272 kts | 75° |
| 2026-05-07 19:02 | 41.12020 | 1.56862 | 6732 ft | 269 kts | 69° |
| 2026-05-07 19:03 | 41.12775 | 1.59125 | 6457 ft | 267 kts | 64° |
| 2026-05-07 19:03 | 41.13573 | 1.61303 | 6183 ft | 264 kts | 64° |
| 2026-05-07 19:03 | 41.14363 | 1.63497 | 5908 ft | 262 kts | 65° |
| 2026-05-07 19:03 | 41.15143 | 1.65677 | 5628 ft | 260 kts | 65° |
| 2026-05-07 19:04 | 41.15906 | 1.67844 | 5353 ft | 258 kts | 65° |
| 2026-05-07 19:04 | 41.16406 | 1.69276 | 5167 ft | 257 kts | 65° |
| 2026-05-07 19:04 | 41.17153 | 1.71418 | 4897 ft | 254 kts | 65° |
| 2026-05-07 19:04 | 41.17891 | 1.73547 | 4620 ft | 253 kts | 65° |
| 2026-05-07 19:05 | 41.18632 | 1.75640 | 4441 ft | 246 kts | 65° |
| 2026-05-07 19:05 | 41.19344 | 1.77659 | 4315 ft | 237 kts | 66° |
| 2026-05-07 19:05 | 41.20018 | 1.79614 | 4197 ft | 228 kts | 66° |
| 2026-05-07 19:05 | 41.20672 | 1.81515 | 3959 ft | 223 kts | 66° |
| 2026-05-07 19:06 | 41.21321 | 1.83389 | 3731 ft | 222 kts | 66° |
| 2026-05-07 19:06 | 41.22573 | 1.87040 | 3208 ft | 215 kts | 66° |
| 2026-05-07 19:06 | 41.23186 | 1.88831 | 2918 ft | 208 kts | 66° |
| 2026-05-07 19:07 | 41.23777 | 1.90552 | 2699 ft | 201 kts | 66° |
| 2026-05-07 19:07 | 41.24352 | 1.92226 | 2420 ft | 198 kts | 66° |
| 2026-05-07 19:07 | 41.24916 | 1.93870 | 2150 ft | 194 kts | 66° |
| 2026-05-07 19:07 | 41.25463 | 1.95472 | 1923 ft | 186 kts | 66° |
| 2026-05-07 19:08 | 41.25979 | 1.96977 | 1645 ft | 170 kts | 66° |
| 2026-05-07 19:08 | 41.26441 | 1.98319 | 1444 ft | 152 kts | 66° |
| 2026-05-07 19:08 | 41.26882 | 1.99602 | 1261 ft | 153 kts | 65° |
| 2026-05-07 19:08 | 41.27323 | 2.00880 | 1059 ft | 151 kts | 65° |
| 2026-05-07 19:09 | 41.27750 | 2.02132 | 832 ft | 150 kts | 65° |
| 2026-05-07 19:09 | 41.28185 | 2.03392 | 643 ft | 148 kts | 65° |
| 2026-05-07 19:09 | 41.28616 | 2.04646 | 461 ft | 150 kts | 66° |
| 2026-05-07 19:09 | 41.29054 | 2.05909 | 264 ft | 150 kts | 65° |
| 2026-05-07 19:10 | 41.29485 | 2.07172 | 58 ft | 150 kts | 66° |
| 2026-05-07 19:10 | 41.29898 | 2.08395 | 12 ft | 133 kts | 66° |
| 2026-05-07 19:10 | 41.30198 | 2.09285 | 8 ft | 80 kts | 65° |
| 2026-05-07 19:10 | 41.30355 | 2.09736 | 9 ft | 27 kts | 65° |
| 2026-05-07 19:11 | 41.30392 | 2.09818 | 8 ft | 11 kts | 43° |
| 2026-05-07 19:11 | 41.30486 | 2.09810 | 8 ft | 14 kts | 337° |
| 2026-05-07 19:11 | 41.30572 | 2.09759 | 8 ft | 14 kts | 335° |
| 2026-05-07 19:11 | 41.30639 | 2.09669 | 8 ft | 14 kts | 291° |
| 2026-05-07 19:12 | 41.30616 | 2.09547 | 8 ft | 14 kts | 245° |
| 2026-05-07 19:12 | 41.30576 | 2.09429 | 10 ft | 14 kts | 245° |
| 2026-05-07 19:12 | 41.30535 | 2.09308 | 12 ft | 17 kts | 245° |
| 2026-05-07 19:12 | 41.30479 | 2.09143 | 9 ft | 21 kts | 245° |
| 2026-05-07 19:13 | 41.30416 | 2.08962 | 8 ft | 22 kts | 243° |
| 2026-05-07 19:13 | 41.30348 | 2.08782 | 8 ft | 22 kts | 243° |
| 2026-05-07 19:13 | 41.30281 | 2.08603 | 8 ft | 22 kts | 243° |
| 2026-05-07 19:13 | 41.30221 | 2.08424 | 8 ft | 21 kts | 248° |
| 2026-05-07 19:14 | 41.30167 | 2.08248 | 8 ft | 20 kts | 248° |
| 2026-05-07 19:14 | 41.30121 | 2.08103 | 8 ft | 12 kts | 242° |
| 2026-05-07 19:14 | 41.30081 | 2.08015 | 7 ft | 10 kts | 227° |
| 2026-05-07 19:14 | 41.30017 | 2.08013 | 8 ft | 10 kts | 158° |
| 2026-05-07 19:15 | 41.29953 | 2.08047 | 8 ft | 10 kts | 159° |
| 2026-05-07 19:15 | 41.29940 | 2.08053 | 9 ft | 0 kts | 159° |
| 2026-05-07 19:15 | 41.29932 | 2.08057 | 8 ft | 5 kts | 159° |
| 2026-05-07 19:15 | 41.29837 | 2.08105 | 9 ft | 24 kts | 159° |
| 2026-05-07 19:16 | 41.29682 | 2.08191 | 8 ft | 23 kts | 155° |
| 2026-05-07 19:16 | 41.29586 | 2.08249 | 7 ft | 6 kts | 157° |
| 2026-05-07 19:16 | 41.29544 | 2.08272 | 7 ft | 7 kts | 155° |
| 2026-05-07 19:16 | 41.29499 | 2.08302 | 7 ft | 8 kts | 154° |
| 2026-05-07 19:17 | 41.29448 | 2.08334 | 7 ft | 8 kts | 154° |
| 2026-05-07 19:17 | 41.29393 | 2.08342 | 7 ft | 7 kts | 199° |
| 2026-05-07 19:17 | 41.29358 | 2.08299 | 7 ft | 7 kts | 225° |
| 2026-05-07 19:17 | 41.29316 | 2.08268 | 7 ft | 7 kts | 204° |
| 2026-05-07 19:18 | 41.29270 | 2.08241 | 7 ft | 6 kts | 202° |
| 2026-05-07 19:18 | 41.29244 | 2.08227 | 7 ft | 1 kts | 203° |